Time;durP1;ratioP1;P1;durP2;ratioP2;P2;SDS_P1;SDS_P2;PMS_P1;PMS_P2;Temp;Humidity;BMP_temperature;BMP_pressure;BME280_temperature;BME280_humidity;BME280_pressure;Samples;Min_cycle;Max_cycle;Signal;HPM_P1;HPM_P2
2023/05/16 00:02:25;;;;;;;37.45;15.75;;;;;;;10.00;57.84;100588.09;6006601;23;20030;-76
2023/05/16 00:14:47;;;;;;;20.80;7.55;;;;;;;9.93;57.95;100590.66;6011370;23;20058;-77
2023/05/16 00:18:14;;;;;;;24.45;8.05;;;;;;;9.90;57.51;100598.44;5982149;24;20461;-75
2023/05/16 00:21:04;;;;;;;21.85;8.15;;;;;;;9.94;57.67;100600.19;5984225;23;20035;-78
2023/05/16 00:23:37;;;;;;;18.88;8.13;;;;;;;10.02;57.88;100602.00;5986815;23;20023;-77
2023/05/16 00:26:04;;;;;;;26.10;8.25;;;;;;;9.90;57.39;100603.63;5986929;23;20027;-77
2023/05/16 00:28:35;;;;;;;17.30;7.40;;;;;;;9.81;57.84;100614.00;6009274;23;20034;-77
2023/05/16 00:31:04;;;;;;;17.17;7.30;;;;;;;9.84;58.77;100619.19;5963877;23;20690;-76
2023/05/16 00:33:43;;;;;;;19.67;7.35;;;;;;;9.76;58.53;100613.06;5988427;23;20026;-77
2023/05/16 00:49:21;;;;;;;24.98;9.18;;;;;;;9.91;59.38;100618.38;6027390;23;20228;-78
2023/05/16 00:52:24;;;;;;;20.13;8.85;;;;;;;9.84;59.90;100606.19;6021035;23;20059;-78
2023/05/16 00:55:54;;;;;;;18.85;7.43;;;;;;;9.87;59.84;100621.81;6032877;23;20090;-79
2023/05/16 01:07:51;;;;;;;23.90;8.43;;;;;;;9.94;59.86;100626.19;6038323;23;20043;-78
2023/05/16 01:10:24;;;;;;;15.50;8.10;;;;;;;10.03;59.63;100616.72;6038346;23;20031;-78
2023/05/16 01:13:21;;;;;;;18.15;8.65;;;;;;;9.99;59.73;100605.41;6014531;23;20027;-77
2023/05/16 01:16:51;;;;;;;24.75;8.90;;;;;;;10.13;59.59;100613.31;6094966;23;20083;-77
2023/05/16 01:24:37;;;;;;;22.08;9.23;;;;;;;10.12;59.47;100614.16;6095933;23;20061;-77
2023/05/16 01:31:18;;;;;;;24.02;7.82;;;;;;;9.99;59.42;100597.63;6056238;23;20022;-77
2023/05/16 01:33:57;;;;;;;26.42;8.35;;;;;;;10.16;59.60;100623.72;6076599;23;20018;-78
2023/05/16 01:37:33;;;;;;;20.30;8.15;;;;;;;10.15;59.70;100622.00;6015015;23;20391;-77
2023/05/16 01:41:29;;;;;;;26.73;8.40;;;;;;;10.14;59.22;100622.00;6009533;23;20042;-75
2023/05/16 01:44:30;;;;;;;26.52;9.05;;;;;;;10.07;59.68;100610.66;5990371;23;20720;-77
2023/05/16 01:47:09;;;;;;;17.98;7.60;;;;;;;10.04;58.90;100623.69;5987222;23;20031;-76
2023/05/16 01:50:10;;;;;;;21.73;8.88;;;;;;;9.88;59.29;100620.94;5999924;23;20030;-79
2023/05/16 01:53:13;;;;;;;23.05;8.25;;;;;;;9.82;59.21;100625.25;5995038;23;20023;-77
2023/05/16 01:56:03;;;;;;;18.27;7.82;;;;;;;9.75;59.87;100619.13;6009849;23;20024;-76
2023/05/16 01:58:40;;;;;;;23.17;7.82;;;;;;;9.81;60.10;100616.59;6010369;23;20031;-76
2023/05/16 02:01:28;;;;;;;28.02;9.30;;;;;;;9.88;60.15;100620.09;6009848;23;20023;-75
2023/05/16 02:04:25;;;;;;;17.42;6.72;;;;;;;9.91;59.71;100618.38;6009969;23;20027;-77
2023/05/16 02:06:59;;;;;;;30.92;8.55;;;;;;;9.89;59.54;100622.69;6011841;23;20041;-76
2023/05/16 02:10:03;;;;;;;30.75;8.63;;;;;;;9.94;60.08;100626.19;6086435;23;20018;-76
2023/05/16 02:12:30;;;;;;;20.73;8.20;;;;;;;9.98;59.89;100631.41;6095470;23;20108;-74
2023/05/16 02:15:01;;;;;;;25.27;7.13;;;;;;;9.91;59.96;100612.31;6071677;23;20028;-74
2023/05/16 02:17:30;;;;;;;21.35;7.25;;;;;;;10.03;60.55;100611.53;6072036;23;20476;-77
2023/05/16 02:19:58;;;;;;;28.40;9.27;;;;;;;10.13;59.97;100612.47;6071656;23;20072;-75
2023/05/16 02:22:41;;;;;;;11.65;6.00;;;;;;;10.17;60.07;100614.19;6097203;23;20105;-74
2023/05/16 02:25:21;;;;;;;15.23;4.90;;;;;;;10.10;60.28;100593.38;6070658;23;20463;-75
2023/05/16 02:27:55;;;;;;;10.50;5.10;;;;;;;10.37;59.54;100619.50;6097355;23;20018;-75
2023/05/16 02:30:31;;;;;;;10.77;4.95;;;;;;;10.45;59.35;100628.25;6069009;23;20028;-75
2023/05/16 02:32:59;;;;;;;7.70;4.15;;;;;;;10.53;58.97;100629.16;6097427;23;20024;-75
2023/05/16 02:36:21;;;;;;;11.65;4.95;;;;;;;10.61;58.71;100621.38;6093159;23;20018;-76
2023/05/16 02:38:51;;;;;;;8.60;5.38;;;;;;;10.68;58.54;100615.34;6091781;23;20030;-75
2023/05/16 02:41:28;;;;;;;11.23;4.90;;;;;;;10.90;58.22;100611.94;6089292;23;20030;-76
2023/05/16 02:43:55;;;;;;;10.82;5.00;;;;;;;11.06;57.72;100615.44;6093799;23;20042;-76
2023/05/16 02:46:57;;;;;;;11.05;4.88;;;;;;;11.18;57.78;100607.66;6097303;23;20022;-76
2023/05/16 02:49:35;;;;;;;9.63;4.40;;;;;;;11.34;56.82;100621.59;6078645;23;20490;-75
2023/05/16 02:52:33;;;;;;;11.30;4.55;;;;;;;11.37;56.25;100592.03;6047605;23;20105;-75
2023/05/16 02:55:29;;;;;;;14.30;5.65;;;;;;;11.53;56.06;100616.38;6090329;23;20467;-75
2023/05/16 02:58:19;;;;;;;17.27;5.97;;;;;;;11.68;56.45;100615.50;6048841;23;20402;-75
2023/05/16 03:01:10;;;;;;;17.20;5.45;;;;;;;11.71;55.76;100608.56;6096763;23;20018;-76
2023/05/16 03:04:03;;;;;;;14.60;5.55;;;;;;;11.98;55.52;100616.34;6096855;23;20023;-75
2023/05/16 03:06:50;;;;;;;13.50;5.30;;;;;;;11.90;55.17;100616.34;6096478;23;20138;-75
2023/05/16 03:09:38;;;;;;;12.90;5.25;;;;;;;12.02;55.41;100612.88;6066929;23;20459;-77
2023/05/16 03:12:38;;;;;;;7.90;4.75;;;;;;;12.16;54.96;100599.81;6055991;23;20483;-75
2023/05/16 03:15:56;;;;;;;7.57;4.85;;;;;;;12.37;54.66;100608.44;6097239;23;20014;-78
2023/05/16 03:18:25;;;;;;;8.80;5.55;;;;;;;12.44;54.37;100608.41;6096666;23;20026;-77
2023/05/16 03:21:05;;;;;;;12.02;5.13;;;;;;;12.58;54.41;100615.34;6047870;23;20053;-77
2023/05/16 03:23:31;;;;;;;12.73;5.63;;;;;;;12.74;53.92;100611.78;6072125;23;20025;-78
2023/05/16 03:26:23;;;;;;;10.27;4.63;;;;;;;12.90;53.79;100627.38;6044896;23;20026;-79
2023/05/16 03:29:05;;;;;;;16.05;5.65;;;;;;;12.96;52.98;100636.03;6069877;23;20022;-77
2023/05/16 03:31:56;;;;;;;19.90;8.50;;;;;;;13.00;53.64;100643.84;6097366;23;20069;-78
2023/05/16 03:34:30;;;;;;;14.77;7.43;;;;;;;12.76;53.46;100625.69;6073308;23;20018;-77
2023/05/16 03:37:00;;;;;;;21.25;8.77;;;;;;;12.84;53.33;100653.50;6096485;23;20033;-75
2023/05/16 03:40:12;;;;;;;16.45;5.85;;;;;;;12.75;53.41;100651.81;6081300;23;20093;-76
2023/05/16 03:42:49;;;;;;;13.55;5.93;;;;;;;12.70;53.58;100651.84;6075590;23;20407;-76
2023/05/16 03:45:51;;;;;;;10.75;5.78;;;;;;;12.62;54.07;100630.97;6066276;23;20041;-76
2023/05/16 03:48:32;;;;;;;14.93;4.78;;;;;;;13.04;54.01;100656.88;6073054;23;20050;-75
2023/05/16 03:52:15;;;;;;;13.60;5.07;;;;;;;13.40;53.23;100659.28;6080455;23;20053;-76
2023/05/16 03:55:14;;;;;;;11.88;4.95;;;;;;;13.72;52.30;100653.00;6096159;23;20363;-76
2023/05/16 03:57:51;;;;;;;10.48;4.93;;;;;;;13.80;51.34;100656.38;6071715;23;20026;-75
2023/05/16 04:00:22;;;;;;;8.23;5.10;;;;;;;13.82;51.08;100643.31;6097690;23;20019;-76
2023/05/16 04:03:27;;;;;;;10.35;4.10;;;;;;;13.90;51.07;100649.34;6073957;23;20384;-74
2023/05/16 04:06:12;;;;;;;7.37;3.53;;;;;;;14.13;50.68;100650.84;6072192;23;20328;-75
2023/05/16 04:08:46;;;;;;;9.20;3.60;;;;;;;14.33;49.84;100658.50;6074082;23;20486;-75
2023/05/16 04:11:20;;;;;;;8.90;3.45;;;;;;;14.50;50.17;100660.94;6071990;23;20018;-75
2023/05/16 04:14:00;;;;;;;6.88;3.55;;;;;;;14.80;49.79;100655.38;6074257;23;20030;-74
2023/05/16 04:23:14;;;;;;;8.13;3.65;;;;;;;15.38;47.70;100647.59;6070646;23;20026;-76
2023/05/16 04:25:58;;;;;;;6.50;3.13;;;;;;;15.62;47.42;100644.56;6071911;23;20102;-74
2023/05/16 04:28:36;;;;;;;19.42;9.73;;;;;;;15.89;47.41;100654.69;6097842;23;20070;-75
2023/05/16 04:31:26;;;;;;;6.00;2.83;;;;;;;16.15;46.37;100648.97;6089597;23;20026;-77
2023/05/16 04:34:16;;;;;;;6.05;2.53;;;;;;;16.14;45.64;100657.72;6051406;23;20029;-74
2023/05/16 04:36:51;;;;;;;5.57;2.67;;;;;;;16.36;45.40;100652.06;6093567;23;20050;-75
2023/05/16 04:39:39;;;;;;;2.87;1.90;;;;;;;16.54;44.28;100651.72;6047653;23;20158;-75
2023/05/16 04:42:55;;;;;;;2.63;1.80;;;;;;;16.65;44.15;100645.38;6077349;23;20289;-75
2023/05/16 04:45:30;;;;;;;3.10;1.90;;;;;;;17.00;43.11;100652.50;6070824;23;20022;-74
2023/05/16 04:48:19;;;;;;;4.75;2.30;;;;;;;17.11;43.01;100643.53;6048470;23;20045;-74
2023/05/16 04:50:51;;;;;;;6.45;2.40;;;;;;;17.45;42.72;100637.47;6067378;23;20533;-74
2023/05/16 04:53:26;;;;;;;4.70;2.50;;;;;;;17.75;41.91;100645.53;5996575;23;20030;-74
2023/05/16 04:56:53;;;;;;;5.35;1.85;;;;;;;18.16;41.47;100648.88;6042135;23;20030;-75
2023/05/16 04:59:27;;;;;;;2.40;1.80;;;;;;;18.10;40.82;100633.22;6068609;23;20057;-76
2023/05/16 05:01:54;;;;;;;4.28;1.70;;;;;;;18.08;40.02;100650.00;6060540;23;20049;-73
2023/05/16 05:04:51;;;;;;;2.90;1.38;;;;;;;17.98;40.09;100649.34;6054877;23;20047;-73
2023/05/16 05:07:21;;;;;;;2.42;1.70;;;;;;;18.06;39.69;100655.31;6067664;23;20018;-74
2023/05/16 05:09:52;;;;;;;3.55;1.60;;;;;;;18.21;39.15;100654.88;6066680;23;20050;-73
2023/05/16 05:12:21;;;;;;;3.58;1.60;;;;;;;18.38;38.60;100655.34;6068449;23;20041;-74
2023/05/16 05:14:55;;;;;;;3.47;1.48;;;;;;;18.40;38.05;100656.16;6044133;23;20030;-75
2023/05/16 05:17:22;;;;;;;2.65;1.50;;;;;;;18.29;37.49;100662.56;6067759;23;20026;-75
2023/05/16 05:19:49;;;;;;;1.85;1.52;;;;;;;18.50;37.39;100671.69;6042497;23;20118;-74
2023/05/16 05:22:29;;;;;;;3.65;1.63;;;;;;;18.92;37.09;100662.53;6042440;23;20487;-75
2023/05/16 05:25:18;;;;;;;4.00;1.27;;;;;;;19.17;36.06;100658.34;6022497;23;20022;-74
2023/05/16 05:27:46;;;;;;;3.25;1.27;;;;;;;19.32;35.33;100668.41;6042671;23;20023;-75
2023/05/16 05:30:25;;;;;;;2.72;1.20;;;;;;;19.28;35.07;100658.84;6066716;23;20030;-74
2023/05/16 05:33:05;;;;;;;1.60;1.23;;;;;;;19.60;35.06;100658.72;6045500;23;20050;-75
2023/05/16 05:35:31;;;;;;;2.28;1.30;;;;;;;20.42;34.26;100651.50;6018291;23;20361;-73
2023/05/16 05:38:01;;;;;;;4.07;1.40;;;;;;;21.95;33.42;100663.25;6068108;23;20031;-76
2023/05/16 05:40:31;;;;;;;1.52;1.23;;;;;;;23.88;30.46;100655.22;6066072;23;20022;-74
2023/05/16 05:43:24;;;;;;;2.22;1.20;;;;;;;25.59;29.46;100646.06;6045726;23;20018;-75
2023/05/16 05:45:55;;;;;;;2.20;1.10;;;;;;;27.49;27.46;100643.22;6064767;23;20090;-75
2023/05/16 05:49:38;;;;;;;2.88;1.30;;;;;;;29.49;25.04;100647.09;6083781;23;20045;-74
2023/05/16 05:52:10;;;;;;;4.43;1.40;;;;;;;30.37;23.62;100653.78;6072362;23;20029;-74
2023/05/16 05:55:30;;;;;;;2.63;1.15;;;;;;;31.42;21.71;100624.78;6092123;23;20475;-75
2023/05/16 05:58:00;;;;;;;1.48;0.95;;;;;;;31.76;21.29;100633.56;6068532;23;20410;-74
2023/05/16 06:00:39;;;;;;;1.77;1.13;;;;;;;32.42;20.14;100643.13;6072364;23;20450;-74
2023/05/16 06:03:10;;;;;;;2.38;1.30;;;;;;;33.29;19.34;100654.25;6069932;23;20048;-74
2023/05/16 06:05:49;;;;;;;2.45;1.40;;;;;;;33.58;18.50;100657.97;6070495;23;20029;-74
2023/05/16 06:08:54;;;;;;;4.63;1.20;;;;;;;33.40;17.70;100661.38;6090698;23;20030;-75
2023/05/16 06:12:08;;;;;;;2.80;0.93;;;;;;;33.36;16.26;100665.31;6071206;23;20473;-76
2023/05/16 06:14:51;;;;;;;1.92;1.13;;;;;;;33.94;16.78;100661.78;6059030;23;20363;-74
2023/05/16 06:17:29;;;;;;;1.58;0.90;;;;;;;33.88;16.05;100658.78;6096685;23;20026;-76
2023/05/16 06:19:56;;;;;;;4.30;1.10;;;;;;;33.62;15.80;100678.25;6069468;23;20384;-75
2023/05/16 06:22:23;;;;;;;5.93;1.05;;;;;;;33.64;15.58;100658.25;6094448;23;20029;-76
2023/05/16 06:24:54;;;;;;;2.75;1.00;;;;;;;34.15;14.70;100671.53;6091440;23;20355;-75
2023/05/16 06:27:28;;;;;;;0.90;0.90;;;;;;;34.75;15.45;100661.34;6071959;23;20332;-76
2023/05/16 06:30:22;;;;;;;1.33;1.00;;;;;;;35.70;14.52;100667.22;6100091;23;20022;-76
2023/05/16 06:32:56;;;;;;;1.58;1.20;;;;;;;36.06;13.35;100669.00;6095439;23;20098;-75
2023/05/16 06:35:23;;;;;;;2.40;1.07;;;;;;;36.13;14.03;100666.50;6046880;23;20458;-75
2023/05/16 06:37:56;;;;;;;1.40;1.10;;;;;;;37.29;13.30;100661.53;6096535;23;20349;-74
2023/05/16 06:40:30;;;;;;;2.00;1.20;;;;;;;36.95;12.85;100667.94;6093198;23;20042;-74
2023/05/16 06:42:57;;;;;;;2.00;0.90;;;;;;;37.22;13.19;100659.47;6096655;23;20347;-75
2023/05/16 06:45:24;;;;;;;5.35;1.23;;;;;;;37.99;12.86;100662.91;6092250;23;20076;-75
2023/05/16 06:48:16;;;;;;;2.53;1.02;;;;;;;38.90;12.38;100662.56;6055846;23;20027;-74
2023/05/16 06:50:52;;;;;;;1.58;1.20;;;;;;;38.94;11.89;100663.06;6046266;23;20025;-75
2023/05/16 06:53:41;;;;;;;2.80;1.05;;;;;;;40.19;11.33;100659.09;6059517;23;20455;-76
2023/05/16 06:56:42;;;;;;;5.43;1.30;;;;;;;41.31;11.15;100648.06;6087839;23;20022;-77
2023/05/16 06:59:10;;;;;;;1.63;1.15;;;;;;;41.29;10.82;100652.84;6069222;23;20034;-76
2023/05/16 07:01:41;;;;;;;4.85;1.10;;;;;;;40.88;10.35;100656.22;6095693;23;20352;-77
2023/05/16 07:04:31;;;;;;;1.92;1.20;;;;;;;41.07;10.22;100643.78;6074518;23;20098;-74
2023/05/16 07:07:01;;;;;;;3.92;1.10;;;;;;;41.25;10.03;100641.50;6095305;23;20054;-76
2023/05/16 07:09:34;;;;;;;2.65;1.20;;;;;;;41.95;9.73;100649.00;6070259;23;20388;-76
2023/05/16 07:12:27;;;;;;;11.55;1.33;;;;;;;40.44;9.43;100641.59;6074440;23;20022;-76
2023/05/16 07:15:05;;;;;;;3.38;1.42;;;;;;;38.82;10.26;100643.53;6074048;23;20340;-76
2023/05/16 07:19:04;;;;;;;3.72;1.42;;;;;;;38.71;10.81;100642.09;5918318;24;20517;-76
2023/05/16 07:21:57;;;;;;;4.00;1.33;;;;;;;39.30;9.85;100648.88;5936674;23;20491;-75
2023/05/16 07:24:59;;;;;;;1.80;1.00;;;;;;;38.26;9.78;100636.34;6051380;23;20027;-76
2023/05/16 07:28:22;;;;;;;1.83;1.13;;;;;;;37.52;10.60;100630.00;6093784;23;20351;-74
2023/05/16 07:31:07;;;;;;;1.20;1.08;;;;;;;36.85;11.26;100633.63;6058156;23;20034;-76
2023/05/16 07:35:12;;;;;;;11.23;1.48;;;;;;;37.44;10.76;100631.88;6075326;23;20033;-75
2023/05/16 07:38:21;;;;;;;5.97;1.40;;;;;;;36.80;11.15;100627.84;6074582;23;20022;-76
2023/05/16 07:41:06;;;;;;;3.72;1.40;;;;;;;36.81;11.68;100632.25;6094147;23;20018;-75
2023/05/16 07:43:35;;;;;;;3.03;1.23;;;;;;;38.47;11.46;100629.47;6068503;23;20093;-75
2023/05/16 07:46:05;;;;;;;1.95;1.30;;;;;;;39.20;9.82;100627.31;6046672;23;20057;-75
2023/05/16 07:54:12;;;;;;;8.80;1.10;;;;;;;36.41;10.82;100615.72;6004585;23;20027;-75
2023/05/16 07:57:08;;;;;;;2.25;0.98;;;;;;;36.32;10.85;100613.97;5999623;23;20078;-73
2023/05/16 07:59:50;;;;;;;3.72;1.40;;;;;;;37.35;10.72;100620.16;6004612;23;20345;-76
2023/05/16 08:02:56;;;;;;;4.10;1.13;;;;;;;38.33;10.51;100610.13;6028259;23;20023;-74
2023/05/16 08:05:35;;;;;;;4.03;1.10;;;;;;;38.00;10.23;100623.00;6032462;23;20023;-74
2023/05/16 08:08:15;;;;;;;2.10;1.33;;;;;;;39.09;9.31;100614.16;6032395;23;20031;-76
2023/05/16 08:15:05;;;;;;;2.05;0.90;;;;;;;39.50;9.20;100622.00;6033157;23;20472;-75
2023/05/16 08:17:34;;;;;;;3.72;1.27;;;;;;;40.33;8.84;100626.59;6033944;23;20107;-74
2023/05/16 08:20:18;;;;;;;3.50;1.10;;;;;;;39.39;8.91;100628.72;6030907;23;20088;-74
2023/05/16 08:23:13;;;;;;;3.95;1.33;;;;;;;38.81;9.12;100641.84;6032442;23;20031;-75
2023/05/16 08:26:32;;;;;;;1.77;0.90;;;;;;;38.10;9.36;100621.78;6047846;23;20034;-78
2023/05/16 08:36:41;;;;;;;1.98;1.00;;;;;;;38.50;9.26;100610.09;6064865;23;20033;-76
2023/05/16 08:39:12;;;;;;;0.90;0.90;;;;;;;38.51;9.04;100612.63;6064767;23;20019;-79
2023/05/16 08:41:41;;;;;;;5.20;1.50;;;;;;;37.89;9.88;100608.75;6038050;23;20033;-76
2023/05/16 08:45:33;;;;;;;6.22;1.10;;;;;;;37.02;9.48;100601.16;6043049;23;20176;-75
2023/05/16 08:49:42;;;;;;;6.95;1.33;;;;;;;39.19;9.37;100600.31;5975122;24;20039;-76
2023/05/16 08:53:00;;;;;;;2.40;1.60;;;;;;;38.86;8.99;100604.97;5897081;24;20370;-75
2023/05/16 08:55:37;;;;;;;4.53;1.25;;;;;;;38.54;8.90;100598.69;5977105;23;20040;-76
2023/05/16 08:59:01;;;;;;;2.45;0.93;;;;;;;37.86;9.84;100592.81;6003388;23;20027;-75
2023/05/16 09:02:34;;;;;;;3.55;0.90;;;;;;;37.66;9.75;100589.63;6000713;23;20062;-74
2023/05/16 09:05:28;;;;;;;5.20;1.10;;;;;;;37.36;9.76;100595.56;5983713;23;20023;-76
2023/05/16 09:08:05;;;;;;;2.47;0.80;;;;;;;37.16;9.58;100586.94;6047305;23;20042;-74
2023/05/16 09:10:40;;;;;;;2.17;1.00;;;;;;;38.02;9.30;100575.66;6058414;23;20117;-77
2023/05/16 09:13:10;;;;;;;3.72;0.80;;;;;;;37.81;9.39;100584.31;6090818;23;20025;-76
2023/05/16 09:15:38;;;;;;;1.08;0.80;;;;;;;38.45;9.47;100590.78;6041656;23;20033;-76
2023/05/16 09:18:14;;;;;;;1.63;0.90;;;;;;;39.04;8.39;100589.38;6091546;23;20125;-75
2023/05/16 09:20:52;;;;;;;1.63;0.90;;;;;;;38.41;8.98;100574.81;6068838;23;20358;-76
2023/05/16 09:23:33;;;;;;;6.88;1.10;;;;;;;38.39;9.30;100571.44;6088275;23;20024;-75
2023/05/16 09:26:13;;;;;;;2.22;1.00;;;;;;;38.79;9.15;100578.66;6088098;23;20030;-76
2023/05/16 09:28:43;;;;;;;3.65;1.02;;;;;;;37.84;9.42;100564.97;6092183;23;20089;-75
2023/05/16 09:31:26;;;;;;;4.40;1.02;;;;;;;37.36;10.54;100567.59;6092170;23;20014;-75
2023/05/16 09:34:21;;;;;;;1.95;0.98;;;;;;;37.60;10.47;100580.31;6065340;23;20026;-75
2023/05/16 09:36:54;;;;;;;4.13;1.42;;;;;;;37.83;10.12;100560.56;6091304;23;20069;-76
2023/05/16 09:39:20;;;;;;;2.15;0.90;;;;;;;38.85;9.75;100580.69;6065495;23;20026;-75
2023/05/16 09:42:29;;;;;;;7.20;1.40;;;;;;;38.92;9.38;100575.38;6090920;23;20422;-76
2023/05/16 09:45:20;;;;;;;2.30;1.40;;;;;;;38.78;9.46;100574.25;6091297;23;20027;-77
2023/05/16 09:48:11;;;;;;;1.92;1.02;;;;;;;39.12;9.31;100568.41;6064642;23;20157;-76
2023/05/16 09:50:51;;;;;;;2.15;1.00;;;;;;;40.17;8.91;100562.22;6037496;23;20117;-76
2023/05/16 09:58:47;;;;;;;2.83;1.50;;;;;;;37.87;9.74;100563.78;6061059;23;20026;-77
2023/05/16 10:01:41;;;;;;;1.73;0.80;;;;;;;39.39;9.41;100549.81;6059503;23;20463;-77
2023/05/16 10:09:24;;;;;;;3.45;1.00;;;;;;;38.49;9.35;100557.63;6063669;23;20033;-77
2023/05/16 10:12:09;;;;;;;1.52;1.20;;;;;;;36.91;10.86;100556.22;6070630;23;20011;-74
2023/05/16 10:14:38;;;;;;;1.10;1.00;;;;;;;37.47;9.49;100532.00;6066274;23;20033;-75
2023/05/16 10:17:26;;;;;;;3.30;1.00;;;;;;;37.65;9.51;100530.94;6037026;23;20062;-77
2023/05/16 10:20:04;;;;;;;2.00;1.10;;;;;;;37.93;9.83;100533.25;6036031;23;20030;-77
2023/05/16 10:26:21;;;;;;;2.90;1.23;;;;;;;35.17;10.66;100543.72;6039042;23;20021;-74
2023/05/16 10:28:50;;;;;;;1.65;1.27;;;;;;;33.31;12.15;100552.53;6037330;23;20030;-74
2023/05/16 10:31:32;;;;;;;1.70;0.85;;;;;;;32.04;12.82;100539.69;6034605;23;20021;-73
2023/05/16 10:34:09;;;;;;;2.67;1.08;;;;;;;30.58;13.62;100538.47;6062940;23;20023;-74
2023/05/16 10:36:38;;;;;;;2.40;1.10;;;;;;;29.16;15.27;100528.91;6062584;23;20118;-77
2023/05/16 10:39:25;;;;;;;3.00;1.00;;;;;;;28.38;16.26;100545.31;6041003;23;20030;-76
2023/05/16 10:42:04;;;;;;;3.80;1.20;;;;;;;27.70;16.77;100536.69;6038702;23;20117;-77
2023/05/16 10:44:39;;;;;;;6.05;1.20;;;;;;;27.35;17.48;100527.44;6039625;23;20023;-76
2023/05/16 10:47:12;;;;;;;4.97;0.93;;;;;;;26.74;17.71;100533.22;6015194;23;20040;-80
2023/05/16 10:49:46;;;;;;;2.50;0.80;;;;;;;26.10;18.12;100532.81;6063905;23;20023;-80
2023/05/16 10:52:24;;;;;;;1.30;0.93;;;;;;;25.47;19.03;100522.44;6039880;23;20031;-77
2023/05/16 10:54:55;;;;;;;2.33;1.10;;;;;;;24.98;19.88;100536.78;6064349;23;20050;-75
2023/05/16 10:57:31;;;;;;;4.10;1.02;;;;;;;24.63;19.88;100529.00;6060277;23;20113;-77
2023/05/16 11:00:29;;;;;;;3.17;1.10;;;;;;;24.13;20.42;100523.72;6045272;23;20026;-77
2023/05/16 11:03:27;;;;;;;2.05;0.95;;;;;;;24.19;20.80;100515.41;6027561;23;20022;-79
2023/05/16 11:06:00;;;;;;;4.07;1.23;;;;;;;24.49;20.62;100521.78;6068973;23;20019;-78
2023/05/16 11:08:27;;;;;;;3.10;1.27;;;;;;;24.46;20.56;100514.84;6044790;23;20084;-80
2023/05/16 11:12:14;;;;;;;3.33;1.13;;;;;;;23.82;21.14;100533.31;6036711;23;20029;-77
2023/05/16 11:15:10;;;;;;;4.13;1.05;;;;;;;23.41;21.36;100525.69;5902736;24;20029;-77
2023/05/16 11:23:13;;;;;;;8.45;1.90;;;;;;;22.93;22.40;100543.97;6066079;23;20173;-80
2023/05/16 11:26:21;;;;;;;1.45;1.10;;;;;;;22.62;22.78;100505.69;6044236;23;20460;-75
2023/05/16 11:28:52;;;;;;;4.03;1.30;;;;;;;22.71;22.27;100522.00;6065984;23;20029;-78
2023/05/16 11:31:26;;;;;;;1.13;0.80;;;;;;;22.75;22.72;100509.44;6040816;23;20026;-77
2023/05/16 11:33:59;;;;;;;1.65;0.80;;;;;;;22.75;22.54;100509.44;6017889;23;20054;-79
2023/05/16 11:36:29;;;;;;;;;;;;;;;22.50;22.45;100531.00;6018182;23;20161;-76
2023/05/16 11:39:05;;;;;;;5.70;1.10;;;;;;;22.17;23.32;100520.97;6065956;23;19917;-79
2023/05/16 11:41:36;;;;;;;2.88;1.10;;;;;;;22.07;23.75;100507.28;6066750;23;20043;-77
2023/05/16 11:44:55;;;;;;;2.80;0.88;;;;;;;22.07;24.01;100512.59;6028368;23;20030;-78
2023/05/16 11:48:00;;;;;;;3.67;0.80;;;;;;;21.93;23.84;100515.88;6033630;23;20023;-77
2023/05/16 11:50:43;;;;;;;4.78;0.98;;;;;;;21.76;23.89;100495.44;6034247;23;20074;-76
2023/05/16 11:53:13;;;;;;;1.23;0.90;;;;;;;21.76;23.71;100516.63;6033225;23;20063;-76
2023/05/16 11:55:50;;;;;;;3.28;0.82;;;;;;;21.54;24.04;100498.16;6028312;23;20034;-77
2023/05/16 12:12:05;;;;;;;1.52;1.20;;;;;;;21.24;25.08;100530.28;5932771;24;20136;-86
2023/05/16 12:21:12;;;;;;;2.78;1.20;;;;;;;21.15;25.37;100518.31;5897753;24;20093;-80
2023/05/16 12:25:45;;;;;;;4.05;0.90;;;;;;;21.00;25.44;100520.66;5843420;24;20035;-78
2023/05/16 12:28:47;;;;;;;1.65;1.02;;;;;;;20.97;25.71;100502.28;5842764;24;20033;-80
2023/05/16 12:32:03;;;;;;;2.67;1.10;;;;;;;20.97;25.39;100499.63;5845101;24;20049;-80
2023/05/16 12:40:35;;;;;;;4.60;1.10;;;;;;;21.01;26.17;100489.78;5891273;24;20386;-80
2023/05/16 12:49:16;;;;;;;2.80;1.13;;;;;;;20.85;26.34;100476.34;5892536;24;20067;-80
2023/05/16 13:00:50;;;;;;;3.83;1.20;;;;;;;20.74;26.20;100472.31;5951584;23;20034;-81
2023/05/16 13:04:54;;;;;;;2.88;0.90;;;;;;;20.78;26.63;100475.72;6011212;23;20031;-79
2023/05/16 13:08:13;;;;;;;6.75;1.13;;;;;;;20.80;26.39;100463.28;5924993;24;20033;-84
2023/05/16 13:12:31;;;;;;;1.95;1.10;;;;;;;20.73;26.59;100475.88;5990618;23;20560;-79
2023/05/16 13:15:14;;;;;;;1.13;1.02;;;;;;;20.74;26.89;100472.31;6006857;23;20031;-82
2023/05/16 13:26:16;;;;;;;2.15;1.08;;;;;;;20.84;26.76;100450.81;5970106;23;20151;-83
2023/05/16 13:28:51;;;;;;;3.80;1.23;;;;;;;20.95;26.68;100479.47;6007873;23;20055;-78
2023/05/16 13:31:41;;;;;;;1.98;1.00;;;;;;;20.92;26.93;100475.16;6005558;23;20039;-77
2023/05/16 13:35:57;;;;;;;3.78;1.33;;;;;;;20.74;27.18;100450.31;5987451;23;20031;-78
2023/05/16 13:39:02;;;;;;;2.05;1.40;;;;;;;20.93;27.29;100466.28;5990055;23;20063;-79
2023/05/16 13:41:28;;;;;;;1.40;1.15;;;;;;;20.84;27.26;100466.69;6011302;23;20241;-78
2023/05/16 13:45:26;;;;;;;2.53;1.10;;;;;;;20.80;27.07;100462.44;5967887;23;20589;-78
2023/05/16 13:48:19;;;;;;;1.55;0.90;;;;;;;20.85;27.07;100463.13;6006021;23;20458;-79
2023/05/16 13:51:27;;;;;;;4.00;1.20;;;;;;;20.79;27.11;100452.78;6006080;23;20027;-79
2023/05/16 13:55:19;;;;;;;5.22;1.30;;;;;;;20.86;27.79;100456.88;5973414;24;20093;-79
2023/05/16 13:58:24;;;;;;;1.38;1.00;;;;;;;20.79;27.27;100458.06;5884989;24;20029;-80
2023/05/16 14:01:20;;;;;;;2.08;1.00;;;;;;;20.64;27.34;100459.53;5926217;24;20616;-78
2023/05/16 14:05:09;;;;;;;2.90;1.10;;;;;;;20.60;27.84;100461.44;5957003;24;20086;-77
2023/05/16 14:09:02;;;;;;;4.13;1.00;;;;;;;20.60;27.65;100448.22;5977898;24;20072;-79
2023/05/16 14:11:34;;;;;;;2.20;1.30;;;;;;;20.64;27.66;100448.94;5978763;24;20083;-78
2023/05/16 14:15:15;;;;;;;2.33;1.00;;;;;;;20.64;27.82;100441.84;5983630;23;20048;-81
2023/05/16 14:18:15;;;;;;;2.92;1.10;;;;;;;20.67;27.84;100454.97;5964031;23;20035;-78
2023/05/16 14:24:10;;;;;;;1.48;1.10;;;;;;;20.57;27.87;100437.75;6022574;23;20545;-77
2023/05/16 14:27:02;;;;;;;1.45;0.80;;;;;;;20.47;27.93;100438.13;6024011;23;20402;-77
2023/05/16 14:29:47;;;;;;;4.07;1.38;;;;;;;20.43;28.40;100433.88;6031432;23;20030;-78
2023/05/16 14:32:36;;;;;;;1.27;0.95;;;;;;;20.32;28.24;100426.38;6033449;23;20105;-77
2023/05/16 14:35:11;;;;;;;2.03;1.50;;;;;;;20.45;28.52;100445.25;6023933;23;20059;-76
2023/05/16 14:37:38;;;;;;;2.70;1.20;;;;;;;20.43;28.76;100440.97;6048263;23;20026;-79
2023/05/16 14:40:17;;;;;;;1.80;1.02;;;;;;;20.43;28.53;100435.69;6092707;23;20022;-78
2023/05/16 14:43:49;;;;;;;1.05;0.90;;;;;;;20.30;28.49;100422.09;6085684;23;20383;-76
2023/05/16 14:46:38;;;;;;;1.85;0.85;;;;;;;20.32;28.63;100449.31;6067131;23;20018;-77
2023/05/16 14:49:11;;;;;;;2.78;1.20;;;;;;;20.28;28.44;100439.78;6067598;23;20062;-75
2023/05/16 14:51:48;;;;;;;1.63;1.08;;;;;;;20.22;28.13;100438.25;6068015;23;20022;-76
2023/05/16 14:54:21;;;;;;;4.75;1.70;;;;;;;20.25;28.73;100450.47;6093035;23;20022;-77
2023/05/16 14:57:07;;;;;;;2.00;1.10;;;;;;;20.19;28.70;100454.22;6068181;23;20030;-77
2023/05/16 14:59:54;;;;;;;2.63;1.00;;;;;;;20.13;28.70;100446.50;6091496;23;20033;-76
2023/05/16 15:02:31;;;;;;;1.25;1.00;;;;;;;20.01;28.96;100453.13;6065451;23;20495;-77
2023/05/16 15:05:06;;;;;;;3.95;1.20;;;;;;;19.96;29.00;100440.09;6066972;23;20475;-78
2023/05/16 15:09:24;;;;;;;1.50;1.20;;;;;;;19.93;29.12;100466.63;5976408;24;20095;-75
2023/05/16 15:12:10;;;;;;;2.17;1.15;;;;;;;19.92;28.99;100451.69;5956336;24;20047;-78
2023/05/16 15:14:44;;;;;;;5.80;1.10;;;;;;;19.89;29.25;100443.88;5976112;24;20028;-76
2023/05/16 15:17:11;;;;;;;2.63;1.27;;;;;;;19.94;29.30;100454.28;5975064;24;20032;-77
2023/05/16 15:19:42;;;;;;;1.15;1.00;;;;;;;19.90;29.17;100444.75;5974619;24;20084;-76
2023/05/16 15:22:15;;;;;;;3.83;1.20;;;;;;;19.88;29.27;100458.00;5976072;23;20078;-78